createdAt,value
2023-02-18T00:00:05.368Z,16.35
2023-02-18T00:02:32.698Z,10.02
2023-02-18T00:04:59.567Z,17.95
2023-02-18T00:07:26.526Z,24.25
2023-02-18T00:09:53.185Z,21.30
2023-02-18T00:12:21.503Z,19.80
2023-02-18T00:14:48.575Z,27.25
2023-02-18T00:17:15.676Z,19.60
2023-02-18T00:19:42.693Z,13.25
2023-02-18T00:22:09.692Z,21.35
2023-02-18T00:24:36.394Z,16.50
2023-02-18T00:27:03.405Z,26.95
2023-02-18T00:29:32.405Z,24.10
2023-02-18T00:31:59.211Z,22.40
2023-02-18T00:34:26.123Z,23.30
2023-02-18T00:36:52.938Z,21.50
2023-02-18T00:39:26.412Z,23.10
2023-02-18T00:41:53.110Z,23.85
2023-02-18T00:44:20.118Z,20.05
2023-02-18T00:46:48.319Z,19.80
2023-02-18T00:49:16.319Z,20.55
2023-02-18T00:51:43.439Z,25.65
2023-02-18T00:54:10.639Z,23.10
2023-02-18T00:56:37.390Z,16.98
2023-02-18T00:59:04.389Z,20.17
2023-02-18T01:01:31.151Z,18.27
2023-02-18T01:03:59.593Z,19.85
2023-02-18T01:06:26.439Z,23.63
2023-02-18T01:08:53.170Z,21.38
2023-02-18T01:11:21.840Z,25.27
2023-02-18T01:13:48.842Z,23.10
2023-02-18T01:16:15.825Z,19.25
2023-02-18T01:18:42.625Z,20.73
2023-02-18T01:21:11.020Z,21.33
2023-02-18T01:23:39.322Z,18.67
2023-02-18T01:26:07.091Z,14.88
2023-02-18T01:28:34.229Z,24.77
2023-02-18T01:31:05.348Z,28.92
2023-02-18T01:33:32.093Z,13.93
2023-02-18T01:35:58.794Z,24.70
2023-02-18T01:38:26.937Z,18.48
2023-02-18T01:40:53.717Z,22.55
2023-02-18T01:43:21.645Z,20.48
2023-02-18T01:45:58.927Z,16.95
2023-02-18T01:48:30.293Z,23.70
2023-02-18T01:53:35.945Z,24.25
2023-02-18T01:56:08.942Z,18.65
2023-02-18T01:58:36.681Z,19.33
2023-02-18T02:01:04.256Z,18.70
2023-02-18T02:03:31.406Z,19.40
2023-02-18T02:05:58.154Z,23.75
2023-02-18T02:08:25.130Z,19.38
2023-02-18T02:11:07.780Z,19.55
2023-02-18T02:13:52.906Z,20.10
2023-02-18T02:16:25.840Z,12.85
2023-02-18T02:19:04.215Z,14.60
2023-02-18T02:21:58.229Z,16.45
2023-02-18T02:24:56.709Z,23.85
2023-02-18T02:27:29.222Z,13.45
2023-02-18T02:30:41.841Z,21.98
2023-02-18T02:33:35.238Z,21.38
2023-02-18T02:36:12.733Z,17.05
2023-02-18T02:38:54.358Z,16.70
2023-02-18T02:41:33.664Z,12.07
2023-02-18T02:44:12.043Z,14.75
2023-02-18T02:46:41.234Z,16.33
2023-02-18T02:49:20.010Z,14.27
2023-02-18T02:51:56.737Z,10.85
2023-02-18T02:54:29.311Z,13.95
2023-02-18T02:57:08.765Z,7.05
2023-02-18T02:59:39.737Z,12.77
2023-02-18T03:02:24.417Z,6.70
2023-02-18T03:05:00.658Z,13.93
2023-02-18T03:07:57.060Z,13.70
2023-02-18T03:10:46.562Z,13.60
2023-02-18T03:13:25.975Z,10.68
2023-02-18T03:15:56.641Z,15.85
2023-02-18T03:18:31.263Z,10.30
2023-02-18T03:21:04.815Z,15.07
2023-02-18T03:23:37.497Z,13.88
2023-02-18T03:26:10.077Z,10.48
2023-02-18T03:28:38.904Z,13.23
2023-02-18T03:31:10.796Z,14.90
2023-02-18T03:33:40.637Z,16.02
2023-02-18T03:36:09.393Z,22.40
2023-02-18T03:38:40.631Z,27.45
2023-02-18T03:41:09.042Z,29.95
2023-02-18T03:43:35.762Z,26.67
2023-02-18T03:46:03.450Z,28.90
2023-02-18T03:48:30.261Z,33.28
2023-02-18T03:50:57.063Z,38.00
2023-02-18T03:53:24.044Z,44.92
2023-02-18T03:55:50.730Z,41.47
2023-02-18T03:58:19.082Z,51.30
2023-02-18T04:00:45.929Z,38.40
2023-02-18T04:03:12.664Z,41.58
2023-02-18T04:05:39.403Z,40.85
2023-02-18T04:08:06.197Z,41.78
2023-02-18T04:10:33.059Z,42.35
2023-02-18T04:12:59.958Z,53.35
2023-02-18T04:15:28.239Z,52.15
2023-02-18T04:17:55.101Z,44.80
2023-02-18T04:20:22.272Z,55.67
2023-02-18T04:22:49.650Z,60.95
2023-02-18T04:25:18.620Z,50.53
2023-02-18T04:27:45.454Z,46.83
2023-02-18T04:30:13.128Z,74.47
2023-02-18T04:32:43.230Z,71.25
2023-02-18T04:35:10.653Z,64.25
2023-02-18T04:37:38.003Z,69.20
2023-02-18T04:40:05.831Z,80.90
2023-02-18T04:42:32.592Z,77.20
2023-02-18T04:44:59.623Z,66.68
2023-02-18T04:47:27.102Z,74.57
2023-02-18T04:49:55.265Z,78.43
2023-02-18T04:52:24.534Z,82.30
2023-02-18T04:54:51.388Z,84.82
2023-02-18T04:57:18.379Z,81.82
2023-02-18T04:59:48.402Z,78.57
2023-02-18T05:02:15.464Z,80.93
2023-02-18T05:04:42.772Z,77.75
2023-02-18T05:07:10.921Z,71.95
2023-02-18T05:09:37.723Z,61.55
2023-02-18T05:12:04.746Z,63.78
2023-02-18T05:14:31.505Z,68.78
2023-02-18T05:16:58.222Z,69.20
2023-02-18T05:19:25.023Z,69.53
2023-02-18T05:21:51.811Z,63.28
2023-02-18T05:24:20.054Z,67.50
2023-02-18T05:26:46.816Z,85.43
2023-02-18T05:29:13.567Z,73.82
2023-02-18T05:31:40.318Z,86.35
2023-02-18T05:34:07.343Z,77.75
2023-02-18T05:36:34.608Z,79.63
2023-02-18T05:39:01.299Z,69.00
2023-02-18T05:41:29.424Z,58.75
2023-02-18T05:43:56.213Z,58.75
2023-02-18T05:46:24.640Z,61.70
2023-02-18T05:48:51.365Z,51.97
2023-02-18T05:51:18.517Z,48.50
2023-02-18T05:53:45.477Z,47.15
2023-02-18T05:56:12.180Z,46.28
2023-02-18T05:58:40.354Z,36.28
2023-02-18T06:01:07.065Z,38.22
2023-02-18T06:03:33.747Z,36.60
2023-02-18T06:06:00.544Z,36.40
2023-02-18T06:08:27.702Z,38.85
2023-02-18T06:10:54.399Z,33.30
2023-02-18T06:13:21.089Z,30.35
2023-02-18T06:15:51.012Z,28.58
2023-02-18T06:18:18.554Z,24.90
2023-02-18T06:20:47.171Z,23.63
2023-02-18T06:23:14.419Z,25.25
2023-02-18T06:25:41.535Z,26.33
2023-02-18T06:28:08.486Z,28.95
2023-02-18T06:30:36.437Z,29.58
2023-02-18T06:33:04.606Z,34.40
2023-02-18T06:35:31.752Z,36.75
2023-02-18T06:37:58.721Z,40.17
2023-02-18T06:40:25.511Z,43.28
2023-02-18T06:42:52.397Z,46.90
2023-02-18T06:45:19.378Z,48.00
2023-02-18T06:47:46.071Z,44.40
2023-02-18T06:50:14.594Z,56.13
2023-02-18T06:52:41.342Z,53.58
2023-02-18T06:55:09.144Z,42.72
2023-02-18T06:57:36.253Z,45.55
2023-02-18T07:00:04.211Z,46.60
2023-02-18T07:02:30.916Z,46.42
2023-02-18T07:04:57.636Z,44.25
2023-02-18T07:07:37.611Z,36.90
2023-02-18T07:10:13.099Z,36.15
2023-02-18T07:12:55.617Z,35.40
2023-02-18T07:15:29.053Z,35.25
2023-02-18T07:18:05.245Z,32.25
2023-02-18T07:20:36.834Z,31.50
2023-02-18T07:23:16.049Z,31.50
2023-02-18T07:26:06.138Z,31.90
2023-02-18T07:28:37.404Z,30.50
2023-02-18T07:31:08.580Z,31.80
2023-02-18T07:33:47.584Z,16.48
2023-02-18T07:36:14.760Z,30.58
2023-02-18T07:38:55.704Z,29.42
2023-02-18T07:41:46.736Z,22.00
2023-02-18T07:44:42.062Z,25.80
2023-02-18T07:47:27.842Z,22.70
2023-02-18T07:49:57.924Z,20.70
2023-02-18T07:55:52.497Z,15.85
2023-02-18T07:58:36.288Z,17.15
2023-02-18T08:01:09.206Z,17.80
2023-02-18T08:03:41.877Z,12.60
2023-02-18T08:06:52.446Z,23.20
2023-02-18T08:22:22.414Z,21.30
2023-02-18T08:25:18.088Z,18.45
2023-02-18T08:27:57.993Z,15.48
2023-02-18T08:30:31.693Z,17.70
2023-02-18T08:33:06.643Z,15.18
2023-02-18T08:35:44.967Z,21.77
2023-02-18T08:38:28.457Z,19.42
2023-02-18T08:41:27.984Z,17.77
2023-02-18T08:43:58.058Z,18.25
2023-02-18T08:46:33.498Z,15.50
2023-02-18T08:49:15.502Z,18.63
2023-02-18T08:51:43.198Z,24.42
2023-02-18T08:54:24.852Z,17.55
2023-02-18T08:56:55.279Z,19.60
2023-02-18T08:59:22.326Z,17.55
2023-02-18T09:01:49.343Z,18.98
2023-02-18T10:21:01.041Z,14.00
